Strona główna
METAR-TAF:

METAR-TAF

Lotnisko :

Port lotniczy Chengdu-Shuangliu

Chengdu, Chiny

Szerokość geograficzna: 30-40N, Długość geograficzna: 104-01E, wysokość: 508 m

Aktualna obserwacja pogody

Raport powstał 13 minut temu, godzina 23:00 UTC
Wiatr 2 kt z kierunków zmiennych
Temperatura 7°C
Wilgotność 100%
Ciśnienie 1020 hPa
Widzialność: 7000 m
Rozproszone chmury na wysokości 4300 ft

METAR: ZUUU 232300Z VRB01MPS 7000 SCT043 07/07 Q1020 NOSIG

czas: 07:13 (23:13 UTC)

Prognoza

Raport powstał 9 godziny i 1 minut temu, godzina 14:12 UTC
Prognoza ważna od 23 godzina 18 UTC do 24 godzina 18 UTC
Wiatr 8 kt od północno-północny wschód
Widzialność: 6000 m
Rozproszone chmury na wysokości 4000 ft
słaby deszcz

TAF: ZUUU 231412Z 2318/2418 02004MPS 6000 -RA SCT040 TX10/2407Z TN07/2321Z

Obserwacja i prognoza pogody dla ponad 4000 lotnisk (raport METAR i TAF).

Dostępne stacje oznaczono żółtymi i czerwonymi punktami na mapie.

Najedź kursorem aby zobaczyć nazwę stacji.

Kliknij aby zobaczyć obserwacje i prognozy pogody.

Aby zmienić mapę: kliknij na zielony przycisk z czarnym krzyżykiem, aby powiększyć; na zielony przycisk z myślnikiem, aby pomniejszyć; na zielone strzałki, aby przejść do map sąsiednich.


METAR-TAF: